Time;durP1;ratioP1;P1;durP2;ratioP2;P2;SDS_P1;SDS_P2;PMS_P1;PMS_P2;Temp;Humidity;BMP_temperature;BMP_pressure;BME280_temperature;BME280_humidity;BME280_pressure;Samples;Min_cycle;Max_cycle;Signal;HPM_P1;HPM_P2
2023/05/30 00:01:23;;;;;;;;;;;22.00;43.70;;;;;;5065983;28;19913;-54
2023/05/30 00:03:49;;;;;;;;;;;22.00;43.70;;;;;;5082590;28;19955;-54
2023/05/30 00:06:14;;;;;;;;;;;21.90;43.80;;;;;;5058181;28;19912;-54
2023/05/30 00:08:40;;;;;;;;;;;21.90;43.70;;;;;;5086938;28;19920;-54
2023/05/30 00:11:06;;;;;;;;;;;21.90;43.80;;;;;;5068811;28;20291;-54
2023/05/30 00:13:32;;;;;;;;;;;21.90;43.60;;;;;;5086441;28;19943;-54
2023/05/30 00:15:58;;;;;;;;;;;21.90;43.70;;;;;;5083552;28;19920;-56
2023/05/30 00:18:23;;;;;;;;;;;21.90;43.70;;;;;;5089732;28;20385;-54
2023/05/30 00:20:50;;;;;;;;;;;21.90;43.70;;;;;;5068442;28;19923;-54
2023/05/30 00:23:15;;;;;;;;;;;21.90;43.70;;;;;;5090549;28;19908;-54
2023/05/30 00:25:41;;;;;;;;;;;21.90;43.70;;;;;;5088825;28;19969;-54
2023/05/30 00:28:07;;;;;;;;;;;21.90;43.70;;;;;;5070974;28;20156;-54
2023/05/30 00:30:33;;;;;;;;;;;21.90;43.70;;;;;;5087112;28;19956;-54
2023/05/30 00:32:59;;;;;;;;;;;21.90;43.70;;;;;;5071881;28;20020;-54
2023/05/30 00:35:24;;;;;;;;;;;21.90;43.70;;;;;;5088938;28;20019;-54
2023/05/30 00:37:50;;;;;;;;;;;21.80;43.70;;;;;;5083289;28;20000;-54
2023/05/30 00:40:15;;;;;;;;;;;21.80;43.70;;;;;;5082614;28;19974;-54
2023/05/30 00:42:41;;;;;;;;;;;21.80;43.80;;;;;;5079461;28;19916;-55
2023/05/30 00:45:06;;;;;;;;;;;21.80;43.90;;;;;;5079853;28;19923;-54
2023/05/30 00:47:32;;;;;;;;;;;21.80;43.90;;;;;;5087403;28;20023;-55
2023/05/30 00:49:57;;;;;;;;;;;21.90;43.80;;;;;;5075728;28;19920;-54
2023/05/30 00:52:23;;;;;;;;;;;21.80;43.80;;;;;;5083046;28;19912;-54
2023/05/30 00:54:48;;;;;;;;;;;21.80;43.90;;;;;;5084481;28;19918;-54
2023/05/30 00:57:14;;;;;;;;;;;21.70;43.80;;;;;;5062041;28;20295;-54
2023/05/30 00:59:40;;;;;;;;;;;21.70;43.80;;;;;;5083889;28;19939;-54
2023/05/30 01:02:05;;;;;;;;;;;21.70;43.70;;;;;;5082300;28;19918;-54
2023/05/30 01:04:32;;;;;;;;;;;21.70;43.70;;;;;;5068110;28;19973;-54
2023/05/30 01:06:58;;;;;;;;;;;21.70;43.60;;;;;;5083703;28;19916;-54
2023/05/30 01:09:23;;;;;;;;;;;21.70;43.70;;;;;;5092955;28;19920;-54
2023/05/30 01:12:08;;;;;;;;;;;21.70;43.70;;;;;;5090328;28;19969;-54
2023/05/30 01:14:52;;;;;;;;;;;21.60;43.70;;;;;;5091588;28;19920;-54
2023/05/30 01:17:21;;;;;;;;;;;21.70;43.60;;;;;;5083247;28;19923;-54
2023/05/30 01:20:05;;;;;;;;;;;21.70;43.70;;;;;;5088783;28;19919;-54
2023/05/30 01:22:32;;;;;;;;;;;21.70;43.50;;;;;;5092575;28;19916;-54
2023/05/30 01:25:21;;;;;;;;;;;21.70;43.50;;;;;;5085159;28;20297;-54
2023/05/30 01:28:06;;;;;;;;;;;21.70;43.30;;;;;;5082719;28;20300;-55
2023/05/30 01:30:32;;;;;;;;;;;21.80;43.30;;;;;;5068136;28;19916;-54
2023/05/30 01:32:58;;;;;;;;;;;21.80;43.30;;;;;;5063772;28;19921;-54
2023/05/30 01:35:24;;;;;;;;;;;21.70;43.30;;;;;;5085876;28;19916;-54
2023/05/30 01:37:49;;;;;;;;;;;21.70;43.20;;;;;;5082270;28;19923;-54
2023/05/30 01:40:21;;;;;;;;;;;21.80;43.20;;;;;;5081302;28;20428;-54
2023/05/30 01:42:48;;;;;;;;;;;21.80;43.00;;;;;;5087053;28;19935;-54
2023/05/30 01:45:15;;;;;;;;;;;21.70;43.20;;;;;;5068804;28;20265;-55
2023/05/30 01:47:43;;;;;;;;;;;21.80;43.00;;;;;;5068137;28;20300;-55
2023/05/30 01:50:19;;;;;;;;;;;21.80;43.00;;;;;;5084923;28;20530;-55
2023/05/30 01:52:52;;;;;;;;;;;21.80;42.90;;;;;;5092236;28;19912;-54
2023/05/30 01:55:17;;;;;;;;;;;21.80;42.90;;;;;;5068604;28;20039;-55
2023/05/30 01:57:45;;;;;;;;;;;21.80;42.80;;;;;;5054368;28;20011;-54
2023/05/30 02:00:11;;;;;;;;;;;21.80;42.90;;;;;;5089268;28;20431;-54
2023/05/30 02:02:37;;;;;;;;;;;21.90;42.90;;;;;;5071461;28;20334;-54
2023/05/30 02:05:02;;;;;;;;;;;21.80;42.90;;;;;;5083112;28;19917;-54
2023/05/30 02:07:28;;;;;;;;;;;21.70;43.50;;;;;;5090232;28;19965;-54
2023/05/30 02:09:54;;;;;;;;;;;21.80;42.90;;;;;;5088171;28;19912;-54
2023/05/30 02:12:19;;;;;;;;;;;21.70;42.90;;;;;;5091770;28;20402;-54
2023/05/30 02:14:47;;;;;;;;;;;21.80;42.90;;;;;;5089237;28;19919;-55
2023/05/30 02:17:13;;;;;;;;;;;21.70;42.90;;;;;;5077327;28;19932;-54
2023/05/30 02:19:39;;;;;;;;;;;21.70;43.00;;;;;;5077713;28;19954;-54
2023/05/30 02:22:05;;;;;;;;;;;21.70;43.00;;;;;;5083943;28;19920;-54
2023/05/30 02:24:31;;;;;;;;;;;21.60;43.00;;;;;;5087375;28;19916;-54
2023/05/30 02:26:56;;;;;;;;;;;21.60;43.10;;;;;;5092477;28;19926;-54
2023/05/30 02:29:22;;;;;;;;;;;21.60;43.00;;;;;;5091928;28;20021;-54
2023/05/30 02:31:48;;;;;;;;;;;21.60;43.00;;;;;;5066854;28;19931;-54
2023/05/30 02:34:13;;;;;;;;;;;21.60;43.10;;;;;;5078492;28;20227;-54
2023/05/30 02:36:39;;;;;;;;;;;21.60;42.90;;;;;;5071431;28;19920;-54
2023/05/30 02:39:06;;;;;;;;;;;21.50;43.00;;;;;;5060984;28;19938;-54
2023/05/30 02:41:32;;;;;;;;;;;21.60;42.90;;;;;;5065040;28;19916;-54
2023/05/30 02:43:57;;;;;;;;;;;21.70;42.90;;;;;;5085575;28;19920;-54
2023/05/30 02:46:22;;;;;;;;;;;21.60;42.80;;;;;;5081523;28;20011;-54
2023/05/30 02:48:48;;;;;;;;;;;21.60;42.70;;;;;;5065907;28;19970;-54
2023/05/30 02:51:13;;;;;;;;;;;21.60;42.60;;;;;;5089565;28;19919;-55
2023/05/30 02:53:39;;;;;;;;;;;21.60;42.70;;;;;;5091041;28;19916;-54
2023/05/30 02:56:05;;;;;;;;;;;21.60;42.70;;;;;;5087473;28;19912;-54
2023/05/30 02:58:30;;;;;;;;;;;21.60;42.80;;;;;;5091875;28;19919;-54
2023/05/30 03:00:56;;;;;;;;;;;21.60;42.90;;;;;;5086875;28;19912;-54
2023/05/30 03:03:24;;;;;;;;;;;21.60;43.10;;;;;;5084569;28;20336;-54
2023/05/30 03:05:50;;;;;;;;;;;21.50;43.00;;;;;;5085785;28;19947;-54
2023/05/30 03:08:16;;;;;;;;;;;21.50;43.00;;;;;;5091027;28;19985;-54
2023/05/30 03:10:41;;;;;;;;;;;21.50;43.00;;;;;;5071873;28;19912;-54
2023/05/30 03:13:06;;;;;;;;;;;21.50;43.10;;;;;;5089884;28;19927;-55
2023/05/30 03:15:32;;;;;;;;;;;21.50;43.10;;;;;;5061907;28;19924;-54
2023/05/30 03:17:58;;;;;;;;;;;21.40;43.20;;;;;;5089960;28;19920;-54
2023/05/30 03:20:24;;;;;;;;;;;21.40;43.20;;;;;;5087660;28;19961;-54
2023/05/30 03:22:49;;;;;;;;;;;21.40;43.10;;;;;;5083321;28;19920;-54
2023/05/30 03:25:15;;;;;;;;;;;21.50;43.20;;;;;;5083490;28;19969;-54
2023/05/30 03:27:41;;;;;;;;;;;21.50;43.10;;;;;;5068032;28;19916;-54
2023/05/30 03:30:06;;;;;;;;;;;21.50;43.20;;;;;;5078132;28;19928;-54
2023/05/30 03:32:32;;;;;;;;;;;21.50;43.20;;;;;;5086474;28;20023;-54
2023/05/30 03:34:57;;;;;;;;;;;21.40;43.10;;;;;;5091100;28;20407;-54
2023/05/30 03:37:23;;;;;;;;;;;21.40;43.10;;;;;;5079615;28;20296;-54
2023/05/30 03:39:48;;;;;;;;;;;21.40;43.20;;;;;;5088874;28;20679;-54
2023/05/30 03:42:14;;;;;;;;;;;21.40;43.20;;;;;;5088487;28;19919;-54
2023/05/30 03:44:39;;;;;;;;;;;21.40;43.20;;;;;;5077780;28;19920;-54
2023/05/30 03:47:05;;;;;;;;;;;21.40;43.00;;;;;;5087039;28;19931;-54
2023/05/30 03:49:30;;;;;;;;;;;21.40;43.20;;;;;;5081169;28;19966;-54
2023/05/30 03:51:56;;;;;;;;;;;21.50;43.20;;;;;;5080771;28;19913;-54
2023/05/30 03:54:21;;;;;;;;;;;21.40;43.10;;;;;;5074915;28;19935;-54
2023/05/30 03:56:46;;;;;;;;;;;21.50;43.20;;;;;;5085383;28;20439;-54
2023/05/30 03:59:13;;;;;;;;;;;21.40;43.10;;;;;;5089071;28;20257;-55
2023/05/30 04:01:39;;;;;;;;;;;21.40;43.20;;;;;;5084952;28;19963;-54
2023/05/30 04:04:04;;;;;;;;;;;21.40;43.20;;;;;;5088152;28;19966;-54
2023/05/30 04:06:30;;;;;;;;;;;21.40;43.10;;;;;;5089743;28;20287;-54
2023/05/30 04:08:55;;;;;;;;;;;21.40;43.20;;;;;;5090924;28;19916;-54
2023/05/30 04:11:21;;;;;;;;;;;21.40;43.20;;;;;;5088773;28;19912;-54
2023/05/30 04:13:46;;;;;;;;;;;21.40;43.10;;;;;;5089524;28;19919;-54
2023/05/30 04:16:12;;;;;;;;;;;21.50;43.20;;;;;;5090446;28;19923;-54
2023/05/30 04:18:43;;;;;;;;;;;21.50;43.10;;;;;;5092557;28;19982;-54
2023/05/30 04:21:15;;;;;;;;;;;21.40;43.20;;;;;;5094421;28;19912;-55
2023/05/30 04:23:40;;;;;;;;;;;21.40;43.20;;;;;;5089370;28;19916;-54
2023/05/30 04:26:09;;;;;;;;;;;21.40;43.20;;;;;;5086823;28;19912;-54
2023/05/30 04:28:42;;;;;;;;;;;21.50;43.20;;;;;;5088842;28;20307;-53
2023/05/30 04:31:08;;;;;;;;;;;21.50;43.20;;;;;;5089002;28;19962;-54
2023/05/30 04:33:35;;;;;;;;;;;21.50;43.20;;;;;;5089516;28;19916;-54
2023/05/30 04:36:08;;;;;;;;;;;21.40;43.30;;;;;;5090455;28;20382;-55
2023/05/30 04:38:34;;;;;;;;;;;21.40;43.30;;;;;;5086617;28;19912;-54
2023/05/30 04:41:03;;;;;;;;;;;21.40;43.20;;;;;;5090632;28;19958;-54
2023/05/30 04:43:29;;;;;;;;;;;21.40;43.80;;;;;;5071440;28;19923;-53
2023/05/30 04:45:54;;;;;;;;;;;21.40;43.80;;;;;;5090289;28;20444;-54
2023/05/30 04:48:21;;;;;;;;;;;21.50;43.20;;;;;;5091428;28;20279;-53
2023/05/30 04:50:47;;;;;;;;;;;21.50;43.30;;;;;;5071472;28;20390;-53
2023/05/30 04:53:15;;;;;;;;;;;21.40;43.20;;;;;;5071237;28;19912;-53
2023/05/30 04:55:43;;;;;;;;;;;21.40;43.30;;;;;;5088015;28;20395;-53
2023/05/30 04:58:08;;;;;;;;;;;21.40;43.40;;;;;;5090724;28;19928;-54
2023/05/30 05:00:36;;;;;;;;;;;21.40;43.40;;;;;;5088306;28;19939;-54
2023/05/30 05:03:02;;;;;;;;;;;21.40;43.40;;;;;;5087627;28;20371;-54
2023/05/30 05:05:27;;;;;;;;;;;21.40;43.40;;;;;;5066647;28;19916;-54
2023/05/30 05:07:53;;;;;;;;;;;21.40;43.50;;;;;;5095010;28;20299;-54
2023/05/30 05:10:18;;;;;;;;;;;21.30;43.50;;;;;;5088531;28;19981;-53
2023/05/30 05:12:44;;;;;;;;;;;21.30;43.50;;;;;;5087721;28;19920;-54
2023/05/30 05:15:09;;;;;;;;;;;21.40;43.70;;;;;;5086574;28;19942;-53
2023/05/30 05:17:36;;;;;;;;;;;21.30;43.60;;;;;;5093576;28;19969;-53
2023/05/30 05:20:02;;;;;;;;;;;21.30;43.60;;;;;;5088724;28;19912;-54
2023/05/30 05:22:28;;;;;;;;;;;21.30;43.60;;;;;;5091755;28;20318;-53
2023/05/30 05:24:53;;;;;;;;;;;21.30;43.70;;;;;;5072536;28;20319;-54
2023/05/30 05:27:19;;;;;;;;;;;21.30;43.70;;;;;;5086785;28;19916;-53
2023/05/30 05:29:44;;;;;;;;;;;21.40;43.70;;;;;;5090313;28;19924;-53
2023/05/30 05:32:10;;;;;;;;;;;21.30;43.70;;;;;;5090516;28;19916;-54
2023/05/30 05:34:35;;;;;;;;;;;21.40;43.70;;;;;;5090002;28;19916;-54
2023/05/30 05:37:00;;;;;;;;;;;21.40;43.70;;;;;;5089678;28;19934;-53
2023/05/30 05:39:26;;;;;;;;;;;21.40;43.70;;;;;;5090553;28;20421;-54
2023/05/30 05:41:51;;;;;;;;;;;21.40;43.70;;;;;;5090268;28;20390;-53
2023/05/30 05:44:17;;;;;;;;;;;21.40;43.70;;;;;;5092459;28;19923;-53
2023/05/30 05:46:42;;;;;;;;;;;21.40;43.70;;;;;;5071400;28;19923;-53
2023/05/30 05:49:08;;;;;;;;;;;21.40;43.70;;;;;;5092347;28;19968;-54
2023/05/30 05:51:33;;;;;;;;;;;21.40;43.70;;;;;;5088798;28;19958;-54
2023/05/30 05:53:59;;;;;;;;;;;21.30;43.70;;;;;;5089650;28;19916;-54
2023/05/30 05:56:24;;;;;;;;;;;21.30;43.70;;;;;;5089801;28;20384;-53
2023/05/30 05:58:50;;;;;;;;;;;21.40;43.80;;;;;;5088710;28;20284;-54
2023/05/30 06:01:15;;;;;;;;;;;21.40;43.70;;;;;;5062966;28;19934;-54
2023/05/30 06:03:40;;;;;;;;;;;21.40;43.70;;;;;;5066279;28;19966;-54
2023/05/30 06:06:06;;;;;;;;;;;21.40;43.70;;;;;;5081698;28;19912;-57
2023/05/30 06:08:31;;;;;;;;;;;21.40;43.60;;;;;;5092209;28;19912;-54
2023/05/30 06:10:57;;;;;;;;;;;21.40;43.60;;;;;;5084976;28;19912;-54
2023/05/30 06:13:22;;;;;;;;;;;21.40;43.60;;;;;;5088396;28;20029;-54
2023/05/30 06:15:48;;;;;;;;;;;21.40;43.70;;;;;;5090997;28;19915;-54
2023/05/30 06:18:13;;;;;;;;;;;21.40;43.70;;;;;;5092908;28;19912;-54
2023/05/30 06:20:39;;;;;;;;;;;21.40;43.70;;;;;;5088692;28;19923;-53
2023/05/30 06:23:04;;;;;;;;;;;21.40;43.80;;;;;;5088011;28;19923;-54
2023/05/30 06:25:30;;;;;;;;;;;21.40;43.70;;;;;;5095260;28;20008;-54
2023/05/30 06:27:56;;;;;;;;;;;21.30;43.70;;;;;;5088262;28;20006;-53
2023/05/30 06:30:21;;;;;;;;;;;21.40;43.80;;;;;;5066247;28;20010;-54
2023/05/30 06:32:47;;;;;;;;;;;21.40;43.80;;;;;;5091200;28;19919;-54
2023/05/30 06:35:12;;;;;;;;;;;21.40;43.80;;;;;;5090684;28;20288;-54
2023/05/30 06:37:38;;;;;;;;;;;21.40;43.90;;;;;;5090804;28;19920;-54
2023/05/30 06:40:04;;;;;;;;;;;21.40;43.90;;;;;;5090034;28;19934;-54
2023/05/30 06:42:30;;;;;;;;;;;21.40;44.00;;;;;;5081430;28;19916;-54
2023/05/30 06:44:56;;;;;;;;;;;21.40;43.90;;;;;;5070390;28;19919;-54
2023/05/30 06:47:21;;;;;;;;;;;21.30;44.00;;;;;;5087963;28;19920;-54
2023/05/30 06:49:47;;;;;;;;;;;21.30;44.20;;;;;;5067724;28;19913;-53
2023/05/30 06:52:12;;;;;;;;;;;21.30;44.10;;;;;;5082238;28;19920;-54
2023/05/30 06:54:37;;;;;;;;;;;21.30;44.10;;;;;;5077470;28;20558;-54
2023/05/30 06:57:04;;;;;;;;;;;21.30;44.20;;;;;;5073156;28;20317;-54
2023/05/30 06:59:33;;;;;;;;;;;21.30;44.20;;;;;;5079546;28;19977;-54
2023/05/30 07:01:59;;;;;;;;;;;21.30;44.10;;;;;;5071787;28;20007;-54
2023/05/30 07:04:24;;;;;;;;;;;21.40;44.20;;;;;;5081084;28;19919;-54
2023/05/30 07:06:50;;;;;;;;;;;21.40;44.10;;;;;;5080066;28;20018;-54
2023/05/30 07:09:16;;;;;;;;;;;21.40;44.10;;;;;;5060829;28;20603;-54
2023/05/30 07:11:41;;;;;;;;;;;21.40;44.10;;;;;;5075410;28;19912;-54
2023/05/30 07:14:07;;;;;;;;;;;21.40;44.10;;;;;;5080511;28;19920;-54
2023/05/30 07:16:32;;;;;;;;;;;21.40;44.20;;;;;;5081489;28;19935;-54
2023/05/30 07:18:58;;;;;;;;;;;21.40;44.20;;;;;;5081222;28;19981;-54
2023/05/30 07:21:23;;;;;;;;;;;21.40;44.10;;;;;;5076138;28;19988;-55
2023/05/30 07:23:48;;;;;;;;;;;21.40;44.20;;;;;;5083037;28;20026;-54
2023/05/30 07:26:14;;;;;;;;;;;21.40;44.20;;;;;;5080204;28;19970;-54
2023/05/30 07:28:39;;;;;;;;;;;21.40;44.40;;;;;;5080073;28;19966;-54
2023/05/30 07:31:05;;;;;;;;;;;21.40;44.20;;;;;;5079954;28;19912;-54
2023/05/30 07:33:31;;;;;;;;;;;21.40;44.30;;;;;;5079448;28;20418;-53
2023/05/30 07:35:56;;;;;;;;;;;21.40;44.40;;;;;;5085254;28;19923;-54
2023/05/30 07:38:21;;;;;;;;;;;21.40;44.40;;;;;;5085431;28;20058;-54
2023/05/30 07:40:47;;;;;;;;;;;21.40;44.40;;;;;;5067422;28;19912;-53
2023/05/30 07:43:12;;;;;;;;;;;21.40;44.40;;;;;;5065419;28;20341;-54
2023/05/30 07:45:38;;;;;;;;;;;21.40;44.40;;;;;;5076084;28;20296;-54
2023/05/30 07:48:05;;;;;;;;;;;21.50;44.50;;;;;;5085977;28;21930;-55
2023/05/30 07:50:30;;;;;;;;;;;21.40;44.50;;;;;;5083435;28;19991;-53
2023/05/30 07:52:58;;;;;;;;;;;21.50;44.50;;;;;;5081321;28;20381;-54
2023/05/30 07:55:26;;;;;;;;;;;21.50;44.60;;;;;;5061177;28;20011;-54
2023/05/30 07:57:51;;;;;;;;;;;21.50;44.50;;;;;;5089865;28;19916;-54
2023/05/30 08:00:17;;;;;;;;;;;21.50;44.50;;;;;;5090850;28;19986;-54
2023/05/30 08:02:42;;;;;;;;;;;21.50;44.50;;;;;;5064224;28;19976;-54
2023/05/30 08:05:07;;;;;;;;;;;21.50;44.50;;;;;;5087293;28;20004;-54
2023/05/30 08:07:33;;;;;;;;;;;21.50;44.50;;;;;;5086658;28;19916;-54
2023/05/30 08:09:58;;;;;;;;;;;21.50;44.40;;;;;;5084003;28;20573;-54
2023/05/30 08:12:28;;;;;;;;;;;21.50;44.50;;;;;;5082712;28;19919;-54
2023/05/30 08:14:55;;;;;;;;;;;21.50;44.60;;;;;;5087085;28;20003;-54
2023/05/30 08:17:23;;;;;;;;;;;21.50;44.70;;;;;;5092602;28;19955;-54
2023/05/30 08:19:50;;;;;;;;;;;21.40;44.70;;;;;;5078330;28;19916;-54
2023/05/30 08:22:15;;;;;;;;;;;21.40;44.70;;;;;;5088727;28;20436;-54
2023/05/30 08:24:41;;;;;;;;;;;21.40;44.70;;;;;;5094789;28;19916;-54
2023/05/30 08:27:10;;;;;;;;;;;21.40;44.80;;;;;;5092723;28;19912;-54
2023/05/30 08:29:36;;;;;;;;;;;21.50;44.90;;;;;;5084215;28;19923;-54
2023/05/30 08:32:01;;;;;;;;;;;21.50;44.90;;;;;;5076472;28;19908;-53
2023/05/30 08:34:27;;;;;;;;;;;21.50;44.90;;;;;;5083714;28;19913;-53
2023/05/30 08:36:53;;;;;;;;;;;21.40;44.80;;;;;;5084677;28;19912;-54
2023/05/30 08:39:19;;;;;;;;;;;21.40;44.90;;;;;;5084103;28;20364;-53
2023/05/30 08:41:44;;;;;;;;;;;21.40;44.80;;;;;;5095003;28;19912;-53
2023/05/30 08:44:10;;;;;;;;;;;21.40;44.90;;;;;;5088521;28;19923;-53
2023/05/30 08:46:38;;;;;;;;;;;21.40;45.00;;;;;;5085707;28;19916;-54
2023/05/30 08:49:04;;;;;;;;;;;21.40;45.10;;;;;;5084153;28;19912;-53
2023/05/30 08:51:29;;;;;;;;;;;21.40;45.10;;;;;;5089543;28;19977;-54
2023/05/30 08:53:55;;;;;;;;;;;21.40;45.20;;;;;;5084686;28;20003;-54
2023/05/30 08:56:32;;;;;;;;;;;21.40;45.10;;;;;;5098757;28;19935;-53
2023/05/30 08:58:58;;;;;;;;;;;21.40;45.10;;;;;;5072958;28;19912;-54
2023/05/30 09:01:24;;;;;;;;;;;21.40;45.00;;;;;;5085301;28;19966;-54
2023/05/30 09:03:49;;;;;;;;;;;21.40;45.10;;;;;;5075064;28;19917;-54
2023/05/30 09:06:15;;;;;;;;;;;21.40;45.00;;;;;;5058791;28;19927;-54
2023/05/30 09:08:45;;;;;;;;;;;21.40;45.20;;;;;;5091208;28;20352;-54
2023/05/30 09:11:11;;;;;;;;;;;21.40;45.30;;;;;;5085566;28;19947;-54
2023/05/30 09:13:37;;;;;;;;;;;21.40;45.10;;;;;;5075441;28;19951;-54
2023/05/30 09:16:02;;;;;;;;;;;21.40;45.80;;;;;;5083088;28;19912;-54
2023/05/30 09:18:28;;;;;;;;;;;21.40;45.10;;;;;;5082182;28;19916;-54
2023/05/30 09:20:54;;;;;;;;;;;21.40;45.30;;;;;;5088691;28;19920;-54
2023/05/30 09:23:19;;;;;;;;;;;21.40;45.10;;;;;;5056215;28;19928;-54
2023/05/30 09:25:48;;;;;;;;;;;21.50;45.20;;;;;;5083618;28;19916;-54
2023/05/30 09:28:14;;;;;;;;;;;21.40;45.10;;;;;;5066520;28;19919;-54
2023/05/30 09:30:55;;;;;;;;;;;21.40;45.10;;;;;;5089442;28;19916;-54
2023/05/30 09:33:20;;;;;;;;;;;21.40;45.40;;;;;;5086643;28;19916;-54
2023/05/30 09:35:49;;;;;;;;;;;21.40;45.30;;;;;;5082939;28;19912;-54
2023/05/30 09:38:15;;;;;;;;;;;21.40;45.30;;;;;;5090044;28;19959;-54
2023/05/30 09:40:41;;;;;;;;;;;21.40;45.20;;;;;;5084282;28;20332;-55
2023/05/30 09:43:06;;;;;;;;;;;21.40;45.20;;;;;;5086830;28;19912;-53
2023/05/30 09:45:32;;;;;;;;;;;21.40;45.40;;;;;;5088739;28;19929;-54
2023/05/30 09:47:57;;;;;;;;;;;21.40;45.40;;;;;;5094250;28;19927;-54
2023/05/30 09:50:23;;;;;;;;;;;21.40;45.50;;;;;;5092882;28;19912;-54
2023/05/30 09:52:51;;;;;;;;;;;21.40;45.60;;;;;;5088670;28;19916;-54
2023/05/30 09:55:17;;;;;;;;;;;21.40;45.60;;;;;;5092197;28;19920;-54
2023/05/30 09:57:49;;;;;;;;;;;21.40;45.50;;;;;;5049855;28;19919;-54
2023/05/30 10:00:15;;;;;;;;;;;21.40;45.50;;;;;;5089432;28;20019;-54
2023/05/30 10:02:42;;;;;;;;;;;21.40;45.50;;;;;;5090186;28;20260;-54
2023/05/30 10:05:17;;;;;;;;;;;21.40;45.60;;;;;;5089539;28;20802;-54
2023/05/30 10:07:42;;;;;;;;;;;21.40;45.50;;;;;;5082263;28;19923;-54
2023/05/30 10:10:08;;;;;;;;;;;21.40;45.50;;;;;;5067796;28;19916;-54
2023/05/30 10:12:33;;;;;;;;;;;21.40;45.60;;;;;;5086288;28;19913;-53
2023/05/30 10:14:59;;;;;;;;;;;21.40;45.60;;;;;;5069963;28;19920;-53
2023/05/30 10:17:24;;;;;;;;;;;21.40;45.60;;;;;;5087477;28;19920;-54
2023/05/30 10:19:51;;;;;;;;;;;21.50;45.70;;;;;;5069080;28;20321;-54
2023/05/30 10:22:17;;;;;;;;;;;21.50;45.70;;;;;;5090314;28;19965;-54
2023/05/30 10:24:43;;;;;;;;;;;21.40;45.60;;;;;;5073570;28;19920;-53
2023/05/30 10:27:10;;;;;;;;;;;21.40;45.60;;;;;;5067608;28;19915;-53
2023/05/30 10:29:37;;;;;;;;;;;21.40;45.60;;;;;;5056195;28;19920;-52
2023/05/30 10:32:03;;;;;;;;;;;21.40;45.60;;;;;;5058968;28;19913;-54
2023/05/30 10:34:34;;;;;;;;;;;21.50;45.70;;;;;;5073160;28;19923;-54
2023/05/30 10:37:00;;;;;;;;;;;21.50;45.70;;;;;;5082342;28;20218;-53
2023/05/30 10:39:47;;;;;;;;;;;21.50;45.70;;;;;;5089797;28;19919;-54
2023/05/30 10:42:18;;;;;;;;;;;21.50;45.70;;;;;;5069942;28;19912;-53
2023/05/30 10:44:55;;;;;;;;;;;21.50;45.70;;;;;;5057352;28;19924;-55
2023/05/30 10:47:47;;;;;;;;;;;21.50;45.70;;;;;;5076439;28;19920;-54
2023/05/30 10:50:31;;;;;;;;;;;21.50;45.70;;;;;;5043313;28;19912;-53
2023/05/30 10:52:57;;;;;;;;;;;21.50;45.70;;;;;;5064309;28;19935;-54
2023/05/30 10:55:23;;;;;;;;;;;21.50;45.70;;;;;;5082050;28;19920;-54
2023/05/30 10:57:48;;;;;;;;;;;21.50;45.70;;;;;;5066286;28;20338;-55
2023/05/30 11:00:17;;;;;;;;;;;21.50;45.90;;;;;;5086013;28;20350;-54
2023/05/30 11:02:43;;;;;;;;;;;21.50;45.80;;;;;;5088925;28;19919;-54
2023/05/30 11:05:09;;;;;;;;;;;21.50;45.70;;;;;;5066970;28;19928;-55
2023/05/30 11:07:38;;;;;;;;;;;21.50;45.80;;;;;;5085711;28;19997;-53
2023/05/30 11:10:05;;;;;;;;;;;21.50;45.90;;;;;;5070016;28;19987;-54
2023/05/30 11:12:30;;;;;;;;;;;21.50;45.90;;;;;;5065251;28;19966;-55
2023/05/30 11:14:56;;;;;;;;;;;21.50;45.80;;;;;;5089438;28;20325;-55
2023/05/30 11:17:27;;;;;;;;;;;21.50;45.70;;;;;;5083310;28;19920;-55
2023/05/30 11:19:53;;;;;;;;;;;21.50;45.70;;;;;;5072151;28;19916;-54
2023/05/30 11:22:22;;;;;;;;;;;21.50;45.70;;;;;;5067841;28;19916;-54
2023/05/30 11:24:48;;;;;;;;;;;21.50;45.80;;;;;;5083796;28;19923;-54
2023/05/30 11:27:14;;;;;;;;;;;21.50;45.80;;;;;;5063998;28;19916;-54
2023/05/30 11:29:56;;;;;;;;;;;21.50;45.70;;;;;;5082743;28;20012;-55
2023/05/30 11:32:23;;;;;;;;;;;21.50;45.70;;;;;;5056564;28;20292;-55
2023/05/30 11:34:57;;;;;;;;;;;21.50;45.70;;;;;;5087696;28;19958;-55
2023/05/30 11:37:22;;;;;;;;;;;21.50;45.70;;;;;;5059591;28;19916;-55
2023/05/30 11:39:47;;;;;;;;;;;21.50;45.70;;;;;;5079903;28;20345;-56
2023/05/30 11:42:13;;;;;;;;;;;21.50;45.80;;;;;;5087008;28;19916;-55
2023/05/30 11:44:39;;;;;;;;;;;21.50;45.80;;;;;;5078975;28;19973;-55
2023/05/30 11:47:06;;;;;;;;;;;21.50;45.90;;;;;;5063739;28;20335;-54
2023/05/30 11:49:32;;;;;;;;;;;21.60;46.00;;;;;;5085161;28;19916;-54
2023/05/30 11:51:57;;;;;;;;;;;21.50;45.80;;;;;;5080741;28;20012;-55
2023/05/30 11:54:23;;;;;;;;;;;21.60;46.50;;;;;;5082227;28;19916;-53
2023/05/30 11:56:50;;;;;;;;;;;21.60;45.90;;;;;;5088133;28;19916;-54
2023/05/30 11:59:19;;;;;;;;;;;21.60;46.00;;;;;;5088900;28;19916;-54
2023/05/30 12:01:51;;;;;;;;;;;21.50;46.00;;;;;;5081200;28;19947;-54
2023/05/30 12:04:16;;;;;;;;;;;21.60;46.00;;;;;;5087390;28;19920;-54
2023/05/30 12:06:44;;;;;;;;;;;21.60;46.10;;;;;;5086314;28;19919;-54
2023/05/30 12:09:10;;;;;;;;;;;21.60;46.10;;;;;;5086199;28;19921;-54
2023/05/30 12:11:35;;;;;;;;;;;21.50;46.10;;;;;;5084329;28;19922;-54
2023/05/30 12:14:01;;;;;;;;;;;21.60;46.20;;;;;;5085372;28;19995;-54
2023/05/30 12:16:26;;;;;;;;;;;21.60;46.20;;;;;;5079684;28;19927;-54
2023/05/30 12:18:52;;;;;;;;;;;21.50;46.10;;;;;;5084686;28;19943;-54
2023/05/30 12:21:18;;;;;;;;;;;21.50;46.10;;;;;;5071908;28;20449;-54
2023/05/30 12:23:43;;;;;;;;;;;21.50;46.20;;;;;;5068418;28;20331;-54
2023/05/30 12:26:15;;;;;;;;;;;21.60;46.30;;;;;;5079197;28;19939;-54
2023/05/30 12:28:44;;;;;;;;;;;21.60;46.90;;;;;;5080681;28;20317;-54
2023/05/30 12:31:19;;;;;;;;;;;21.50;46.20;;;;;;5083599;28;19920;-53
2023/05/30 12:33:44;;;;;;;;;;;21.60;46.30;;;;;;5070383;28;20299;-55
2023/05/30 12:36:11;;;;;;;;;;;21.60;46.30;;;;;;5086962;28;19908;-55
2023/05/30 12:38:36;;;;;;;;;;;21.60;46.30;;;;;;5060962;28;19928;-54
2023/05/30 12:41:02;;;;;;;;;;;21.60;46.30;;;;;;5058407;28;19919;-54
2023/05/30 12:43:28;;;;;;;;;;;21.60;46.30;;;;;;5086802;28;20265;-54
2023/05/30 12:45:57;;;;;;;;;;;21.60;46.10;;;;;;5081982;28;19927;-54
2023/05/30 12:48:23;;;;;;;;;;;21.60;46.10;;;;;;5086841;28;19974;-55
2023/05/30 12:50:48;;;;;;;;;;;21.60;46.00;;;;;;5078871;28;19962;-54
2023/05/30 12:53:14;;;;;;;;;;;21.70;46.20;;;;;;5086444;28;19916;-55
2023/05/30 12:55:39;;;;;;;;;;;21.70;46.20;;;;;;5076929;28;19911;-54
2023/05/30 12:58:05;;;;;;;;;;;21.70;46.10;;;;;;5080378;28;19912;-55
2023/05/30 13:00:31;;;;;;;;;;;21.70;46.10;;;;;;5081837;28;20372;-55
2023/05/30 13:02:56;;;;;;;;;;;21.70;46.10;;;;;;5078801;28;19912;-52
2023/05/30 13:05:22;;;;;;;;;;;21.70;46.20;;;;;;5071983;28;20387;-53
2023/05/30 13:07:47;;;;;;;;;;;21.70;46.30;;;;;;5083279;28;19913;-53
2023/05/30 13:10:13;;;;;;;;;;;21.70;46.20;;;;;;5081686;28;19912;-54
2023/05/30 13:12:38;;;;;;;;;;;21.80;46.20;;;;;;5089870;28;19923;-52
2023/05/30 13:15:04;;;;;;;;;;;21.80;46.10;;;;;;5069622;28;20049;-54
2023/05/30 13:17:29;;;;;;;;;;;21.80;46.10;;;;;;5091562;28;19949;-54
2023/05/30 13:19:55;;;;;;;;;;;21.80;46.00;;;;;;5089973;28;19920;-54
2023/05/30 13:22:21;;;;;;;;;;;21.80;46.10;;;;;;5092376;28;19962;-53
2023/05/30 13:24:46;;;;;;;;;;;21.80;46.00;;;;;;5086416;28;19925;-53
2023/05/30 13:27:11;;;;;;;;;;;21.80;45.90;;;;;;5084529;28;20264;-54
2023/05/30 13:29:37;;;;;;;;;;;21.80;45.90;;;;;;5073652;28;20011;-54
2023/05/30 13:32:02;;;;;;;;;;;21.90;46.10;;;;;;5087048;28;19976;-54
2023/05/30 13:34:28;;;;;;;;;;;21.90;46.00;;;;;;5079100;28;19912;-54
2023/05/30 13:36:53;;;;;;;;;;;21.90;46.00;;;;;;5084031;28;19923;-53
2023/05/30 13:39:19;;;;;;;;;;;21.80;45.90;;;;;;5057363;28;20364;-54
2023/05/30 13:41:44;;;;;;;;;;;21.80;45.90;;;;;;5086944;28;19915;-54
2023/05/30 13:44:10;;;;;;;;;;;21.80;46.20;;;;;;5086230;28;19916;-54
2023/05/30 13:46:35;;;;;;;;;;;21.80;46.10;;;;;;5093446;28;19916;-54
2023/05/30 13:49:04;;;;;;;;;;;21.80;46.20;;;;;;5093016;28;19915;-54
2023/05/30 13:51:30;;;;;;;;;;;21.80;46.30;;;;;;5093141;28;19998;-54
2023/05/30 13:53:55;;;;;;;;;;;21.80;46.20;;;;;;5091825;28;19917;-54
2023/05/30 13:56:21;;;;;;;;;;;21.80;46.20;;;;;;5069234;28;19919;-53
2023/05/30 13:58:47;;;;;;;;;;;21.80;46.20;;;;;;5090313;28;20303;-54
2023/05/30 14:01:13;;;;;;;;;;;21.80;46.80;;;;;;5088040;28;20011;-54
2023/05/30 14:03:39;;;;;;;;;;;21.80;46.50;;;;;;5092505;28;20304;-54
2023/05/30 14:06:05;;;;;;;;;;;21.80;46.50;;;;;;5090683;28;19916;-54
2023/05/30 14:08:31;;;;;;;;;;;21.80;46.50;;;;;;5087568;28;19912;-54
2023/05/30 14:10:56;;;;;;;;;;;21.80;46.50;;;;;;5092292;28;20284;-54
2023/05/30 14:13:24;;;;;;;;;;;21.70;46.40;;;;;;5076636;28;19908;-53